Date,TemperatureHighF,TemperatureAvgF,TemperatureLowF,DewpointHighF,DewpointAvgF,DewpointLowF,HumidityHigh,HumidityAvg,HumidityLow,PressureMaxIn,PressureMinIn,WindSpeedMaxMPH,WindSpeedAvgMPH,GustSpeedMaxMPH,PrecipitationSumIn
2013-1-1,52,43,36,41,37,33,100,81,56,30.20,30.13,4,0,17,0.00
2013-1-2,58,42,31,40,33,25,100,77,31,30.17,30.05,0,0,7,0.00
2013-1-3,58,42,32,40,35,31,99,80,44,30.18,30.09,1,0,6,0.02
2013-1-4,60,46,36,40,37,32,98,76,36,30.21,30.09,1,0,7,0.00
2013-1-5,57,47,37,50,43,36,99,88,65,30.18,30.00,3,0,17,0.07
2013-1-6,50,48,47,50,48,47,100,100,98,30.11,29.98,5,0,12,0.20
2013-1-7,61,47,38,52,44,38,100,91,64,30.18,30.08,0,0,7,0.04
2013-1-8,64,51,44,54,45,42,100,84,50,30.16,30.05,0,0,6,0.02
2013-1-9,58,48,42,51,44,38,100,90,71,30.07,29.93,3,0,16,0.02
2013-1-10,50,45,40,39,36,32,87,71,53,30.12,30.01,2,0,14,0.02
2013-1-11,53,43,33,39,35,31,96,74,50,30.19,30.06,2,0,13,0.00
2013-1-12,51,41,32,39,29,16,100,68,25,30.19,30.07,0,0,6,0.00
2013-1-13,34,31,29,28,26,25,88,84,80,30.16,30.10,0,0,0,0.00
2013-1-17,63,45,32,40,33,30,96,69,33,30.19,30.07,0,0,8,0.00
2013-1-18,66,48,36,40,36,33,92,66,29,30.16,30.05,1,0,7,0.00
2013-1-19,64,47,34,42,36,32,92,67,36,30.18,30.08,1,0,7,0.00
2013-1-20,65,48,34,38,34,30,95,65,27,30.16,30.05,0,0,7,0.00
2013-1-21,66,46,33,40,34,29,93,68,26,30.11,30.00,0,0,6,0.00
2013-1-22,63,48,36,43,38,33,96,70,33,30.04,29.92,0,0,6,0.00
2013-1-23,56,51,46,52,47,40,97,87,66,30.00,29.89,0,0,7,0.07